Αρχική σελίδα
METAR-TAF:

METAR-TAF

Αεροδρόμια :

Ribeirão Preto, Σάο Πάολο, Βραζιλία

γεωγραφικό πλάτος: 21-08S, γεωγραφικό μήκος: 047-47W, υψόμετρο: 549 μ

Παρών καιρός

Η αναφορά έγινε 35 λεπτά πριν, στις 08:00 UTC
Άνεμος 6 kt από Α/NA
Θερμοκρασία 15°C
Υγρασία 67%
Πίεση 1022 hPa
Ορατότητα 10 χλμ και άνω
Δεν υπάρχουν νέφη με βάση κάτω από τα 1500 μ. και δεν υπάρχουν νέφη σωρειτομελανίτες.

METAR: SBRP 190800Z 12006KT CAVOK 15/09 Q1022

Χρόνος: 05:35 (08:35 UTC)

Πρόγνωση Καιρού

Η αναφορά έγινε 4 ώρες και 5 λεπτά πριν, στις 04:30 UTC
Η πρόγνωση ισχύει από τις 19 στις 06 UTC έως τις 19 στις 18 UTC
Άνεμος 7 kt από Α/NA
Ορατότητα 10 χλμ και άνω
Δεν υπάρχουν νέφη με βάση κάτω από τα 1500 μ. και δεν υπάρχουν νέφη σωρειτομελανίτες.

TAF: SBRP 190430Z 1906/1918 12007KT CAVOK TN15/1910Z TX29/1917Z RMK PGL

Μετεωρολογικές αναφορές και προγνώσεις για περισσότερα από 4000 αεροδρόμια (δελτία METAR και TAF).

Οι διαθέσιμοι σταθμοί απεικονίζονται στο χάρτη με κίτρινες και κόκκινες κουκκίδες.

Μετακινήστε το ποντίκι πάνω από τις κουκκίδες για να δείτε το όνομα του σταθμού.

Στη συνέχεια, κάντε κλικ για να δείτε τις μετεωρολογικές αναφορές και τις προγνώσεις καιρού.

Για να αλλάξετε το χάρτη: κάντε κλικ στα πράσινα κουμπιά με τον μαύρο σταυρό για να ζουμάρετε, στο πράσινο κουμπί με την παύλα για να αφαιρέσετε το ζουμ ή στα πράσινα βέλη για να αντιπαραβάλλετε χάρτες.


METAR-TAF: